Lagostelle, Spain

2:13 PM CEST on June 28, 2017 (GMT +0200)
Lugar de Gabin - Torres - Vilarmaior | | Change Station

Elev 981 ft 43.35 °N, 8.12 °W | Updated 27 seconds ago

Rain
Rain
58.3 °F
Feels Like 58.3 °F
N
8.0
Wind Variable Wind from NW
Gusts 15.0 mph

Today
High -- | Low -- °F
--% Chance of Precip.
Yesterday
High -- | Low -- °F
Precip. -- in
Pressure 29.92 in
Visibility 2.5 miles
Clouds Scattered Clouds 600 ft
Mostly Cloudy 1000 ft
Dew Point 57 °F
Humidity 97%
Rainfall 0.63 in
Snow Depth Not available.
6:54 AM 10:15 PM
Waxing Crescent, 25% visible
SPECI LEST 281209Z 32014G26KT 290V350 4000 +RA SCT006 BKN010 15/13 Q1013 NOSIG
Pressure 29.92 in
Visibility 2.5 miles
Clouds Scattered Clouds 600 ft
Mostly Cloudy 1000 ft
Dew Point 57 °F
Humidity 97%
Rainfall 0.63 in
Snow Depth Not available.
6:54 AM 10:15 PM
Waxing Crescent, 25% visible
SPECI LEST 281209Z 32014G26KT 290V350 4000 +RA SCT006 BKN010 15/13 Q1013 NOSIG

Get Severe Weather Alerts

Thanks for signing up!

Be on the lookout for a verification email in your inbox.

You'll start receiving the daily forecast at 6 AM.

×

10-Day Weather Forecast

×

Almanac

Astronomy

Jun. 28, 2017 Rise Set
Actual Time
Civil Twilight
Nautical Twilight
Astronomical Twilight
Moon
Length of Visible Light
Length of Day
Tomorrow will be .
, % of the Moon is Illuminated

Today's Extremes

Country Highs Country Lows

Community

WunderPhotos

Category 6

Welcome to Category 6. This is the collective home for Weather Underground's featured writeups by Dr. Jeff Masters (right), Bob Henson (left), Chris Burt, and other regular contributors.

Nearby

Air Quality

  Air Quality AQ Index Pollutant
Not available.

Snow Depth

Station Depth Elevation

Earthquake Activity

City Distance Mag. Time & Date
Minimum magnitude displayed is 2.5.

Coastal Water Temperatures

Place Temperature

Stations

Nearby Weather Stations

Station Location Temp. Windchill Dew Point Humidity Wind Precip. Elev Updated Type